createdAt,value
2022-08-26T00:00:56.806Z,22.83
2022-08-26T00:01:57.017Z,25.09
2022-08-26T00:02:56.782Z,26.05
2022-08-26T00:03:56.848Z,23.15
2022-08-26T00:04:56.756Z,24.44
2022-08-26T00:05:56.742Z,23.80
2022-08-26T00:06:56.744Z,23.48
2022-08-26T00:07:56.717Z,21.22
2022-08-26T00:08:56.700Z,21.22
2022-08-26T00:09:56.689Z,21.54
2022-08-26T00:10:56.673Z,24.77
2022-08-26T00:11:56.659Z,23.48
2022-08-26T00:12:56.645Z,21.87
2022-08-26T00:13:56.634Z,25.09
2022-08-26T00:14:56.617Z,22.83
2022-08-26T00:15:56.605Z,25.09
2022-08-26T00:16:56.623Z,22.19
2022-08-26T00:17:56.580Z,21.54
2022-08-26T00:18:56.564Z,23.15
2022-08-26T00:19:56.551Z,22.51
2022-08-26T00:20:56.539Z,22.19
2022-08-26T00:21:56.524Z,24.77
2022-08-26T00:22:56.507Z,23.80
2022-08-26T00:23:56.502Z,23.15
2022-08-26T00:24:56.481Z,26.70
2022-08-26T00:25:56.848Z,24.44
2022-08-26T00:26:56.455Z,22.51
2022-08-26T00:27:56.443Z,24.44
2022-08-26T00:28:56.434Z,26.70
2022-08-26T00:29:56.416Z,20.90
2022-08-26T00:30:56.400Z,28.63
2022-08-26T00:31:56.499Z,24.77
2022-08-26T00:32:56.378Z,24.77
2022-08-26T00:33:56.362Z,22.51
2022-08-26T00:34:56.345Z,23.80
2022-08-26T00:35:56.339Z,23.48
2022-08-26T00:36:56.319Z,23.15
2022-08-26T00:37:56.307Z,23.15
2022-08-26T00:38:56.298Z,21.87
2022-08-26T00:39:56.307Z,23.48
2022-08-26T00:40:56.265Z,24.44
2022-08-26T00:41:56.253Z,23.48
2022-08-26T00:42:56.237Z,24.77
2022-08-26T00:43:56.230Z,25.09
2022-08-26T00:44:56.209Z,23.15
2022-08-26T00:45:56.235Z,23.48
2022-08-26T00:46:56.180Z,22.51
2022-08-26T00:47:56.168Z,22.19
2022-08-26T00:48:56.153Z,21.54
2022-08-26T00:49:56.145Z,24.12
2022-08-26T00:50:56.127Z,21.54
2022-08-26T00:51:56.119Z,25.41
2022-08-26T00:52:56.098Z,26.05
2022-08-26T00:53:56.092Z,21.87
2022-08-26T00:54:56.071Z,22.51
2022-08-26T00:55:56.060Z,22.83
2022-08-26T00:56:56.054Z,24.44
2022-08-26T00:57:56.034Z,22.51
2022-08-26T00:58:56.023Z,21.87
2022-08-26T00:59:56.006Z,22.83
2022-08-26T01:00:56.062Z,23.15
2022-08-26T01:01:56.011Z,26.70
2022-08-26T01:02:55.964Z,24.12
2022-08-26T01:03:55.951Z,24.44
2022-08-26T01:04:56.469Z,24.12
2022-08-26T01:05:55.926Z,25.09
2022-08-26T01:06:55.914Z,21.87
2022-08-26T01:07:55.899Z,21.87
2022-08-26T01:08:55.887Z,23.48
2022-08-26T01:09:55.872Z,23.15
2022-08-26T01:10:55.956Z,21.54
2022-08-26T01:11:55.843Z,24.12
2022-08-26T01:12:55.829Z,25.41
2022-08-26T01:13:55.822Z,21.22
2022-08-26T01:14:55.805Z,21.54
2022-08-26T01:15:55.793Z,24.77
2022-08-26T01:16:55.776Z,22.51
2022-08-26T01:17:55.762Z,22.83
2022-08-26T01:18:55.757Z,23.15
2022-08-26T01:19:55.739Z,24.12
2022-08-26T01:20:57.569Z,21.87
2022-08-26T01:21:55.707Z,23.15
2022-08-26T01:22:55.689Z,21.54
2022-08-26T01:23:57.757Z,20.58
2022-08-26T01:24:55.668Z,23.15
2022-08-26T01:25:55.666Z,24.77
2022-08-26T01:26:55.643Z,23.15
2022-08-26T01:27:55.629Z,22.51
2022-08-26T01:28:55.610Z,23.15
2022-08-26T01:29:55.598Z,23.15
2022-08-26T01:30:55.585Z,22.83
2022-08-26T01:31:55.636Z,23.15
2022-08-26T01:32:55.556Z,26.70
2022-08-26T01:33:55.544Z,22.83
2022-08-26T01:34:55.530Z,23.80
2022-08-26T01:35:55.529Z,21.22
2022-08-26T01:36:55.508Z,20.90
2022-08-26T01:37:55.501Z,23.15
2022-08-26T01:38:55.484Z,21.87
2022-08-26T01:39:55.509Z,23.15
2022-08-26T01:40:55.454Z,22.51
2022-08-26T01:41:55.478Z,24.77
2022-08-26T01:42:55.426Z,22.83
2022-08-26T01:43:55.413Z,21.54
2022-08-26T01:44:55.395Z,22.51
2022-08-26T01:45:55.420Z,23.15
2022-08-26T01:46:55.368Z,23.15
2022-08-26T01:47:56.550Z,23.48
2022-08-26T01:48:55.345Z,23.15
2022-08-26T01:49:55.335Z,21.87
2022-08-26T01:50:55.320Z,25.09
2022-08-26T01:51:55.310Z,25.41
2022-08-26T01:52:55.286Z,21.54
2022-08-26T01:53:55.278Z,23.80
2022-08-26T01:54:55.261Z,23.15
2022-08-26T01:55:55.263Z,21.87
2022-08-26T01:56:55.236Z,23.80
2022-08-26T01:57:56.251Z,26.38
2022-08-26T01:58:55.208Z,21.54
2022-08-26T01:59:55.204Z,21.87
2022-08-26T02:00:55.246Z,26.38
2022-08-26T02:01:55.174Z,24.44
2022-08-26T02:02:55.159Z,22.83
2022-08-26T02:03:55.152Z,22.83
2022-08-26T02:04:55.155Z,21.87
2022-08-26T02:05:55.129Z,20.25
2022-08-26T02:06:55.105Z,22.51
2022-08-26T02:07:55.091Z,20.90
2022-08-26T02:08:55.074Z,25.73
2022-08-26T02:09:55.067Z,23.80
2022-08-26T02:10:55.242Z,22.19
2022-08-26T02:11:55.036Z,27.02
2022-08-26T02:12:55.029Z,22.83
2022-08-26T02:13:55.008Z,21.87
2022-08-26T02:14:55.000Z,22.51
2022-08-26T02:15:55.032Z,23.15
2022-08-26T02:16:54.974Z,22.51
2022-08-26T02:17:54.957Z,21.54
2022-08-26T02:18:54.958Z,24.12
2022-08-26T02:19:54.933Z,21.54
2022-08-26T02:20:54.918Z,23.80
2022-08-26T02:21:54.913Z,22.19
2022-08-26T02:22:54.890Z,22.83
2022-08-26T02:23:56.072Z,23.48
2022-08-26T02:24:54.870Z,23.48
2022-08-26T02:25:54.858Z,21.54
2022-08-26T02:26:54.835Z,23.15
2022-08-26T02:27:54.825Z,22.51
2022-08-26T02:28:54.816Z,25.41
2022-08-26T02:29:54.804Z,22.83
2022-08-26T02:30:55.652Z,23.48
2022-08-26T02:31:54.869Z,23.48
2022-08-26T02:32:54.750Z,21.54
2022-08-26T02:33:54.752Z,23.48
2022-08-26T02:34:54.728Z,22.51
2022-08-26T02:35:54.714Z,24.12
2022-08-26T02:36:54.698Z,24.44
2022-08-26T02:37:54.696Z,22.51
2022-08-26T02:38:54.676Z,21.87
2022-08-26T02:39:54.747Z,20.58
2022-08-26T02:40:54.652Z,24.12
2022-08-26T02:41:54.650Z,22.51
2022-08-26T02:42:57.017Z,20.90
2022-08-26T02:43:54.609Z,24.12
2022-08-26T02:44:54.596Z,23.15
2022-08-26T02:45:54.585Z,21.22
2022-08-26T02:46:54.680Z,22.51
2022-08-26T02:47:54.552Z,24.77
2022-08-26T02:48:54.540Z,27.02
2022-08-26T02:49:54.535Z,23.48
2022-08-26T02:50:54.509Z,24.44
2022-08-26T02:51:54.506Z,23.48
2022-08-26T02:52:54.485Z,25.73
2022-08-26T02:53:54.475Z,20.58
2022-08-26T02:54:54.455Z,26.05
2022-08-26T02:55:54.451Z,21.22
2022-08-26T02:56:54.427Z,25.73
2022-08-26T02:57:54.423Z,21.87
2022-08-26T02:58:54.400Z,24.44
2022-08-26T02:59:54.392Z,21.87
2022-08-26T03:00:54.419Z,24.12
2022-08-26T03:01:56.142Z,21.87
2022-08-26T03:02:54.350Z,21.87
2022-08-26T03:03:54.343Z,24.77
2022-08-26T03:04:57.821Z,25.73
2022-08-26T03:05:55.340Z,23.15
2022-08-26T03:06:55.458Z,23.48
2022-08-26T03:07:54.287Z,24.44
2022-08-26T03:08:54.266Z,22.51
2022-08-26T03:09:54.263Z,23.48
2022-08-26T03:10:54.242Z,25.41
2022-08-26T03:11:54.233Z,25.41
2022-08-26T03:12:54.212Z,21.22
2022-08-26T03:13:54.204Z,21.22
2022-08-26T03:14:54.188Z,21.22
2022-08-26T03:15:54.209Z,20.90
2022-08-26T03:16:54.166Z,21.54
2022-08-26T03:17:54.151Z,20.25
2022-08-26T03:18:54.129Z,22.19
2022-08-26T03:19:57.331Z,21.87
2022-08-26T03:20:54.102Z,21.54
2022-08-26T03:21:57.979Z,21.54
2022-08-26T03:22:54.078Z,20.58
2022-08-26T03:23:54.069Z,21.54
2022-08-26T03:24:54.053Z,21.87
2022-08-26T03:25:54.039Z,22.19
2022-08-26T03:26:54.028Z,22.83
2022-08-26T03:27:54.016Z,25.73
2022-08-26T03:28:53.998Z,21.87
2022-08-26T03:29:53.983Z,24.77
2022-08-26T03:30:54.049Z,23.80
2022-08-26T03:31:53.962Z,24.44
2022-08-26T03:32:53.943Z,25.09
2022-08-26T03:33:56.569Z,22.51
2022-08-26T03:34:53.917Z,20.58
2022-08-26T03:35:53.903Z,21.87
2022-08-26T03:36:53.890Z,23.15
2022-08-26T03:37:53.885Z,21.87
2022-08-26T03:38:53.864Z,21.87
2022-08-26T03:39:53.957Z,24.44
2022-08-26T03:40:53.830Z,22.51
2022-08-26T03:41:53.821Z,23.48
2022-08-26T03:42:53.854Z,25.09
2022-08-26T03:43:55.017Z,23.48
2022-08-26T03:44:53.782Z,21.54
2022-08-26T03:45:53.772Z,24.44
2022-08-26T03:46:53.830Z,23.15
2022-08-26T03:47:53.744Z,20.25
2022-08-26T03:48:53.734Z,22.83
2022-08-26T03:49:53.712Z,22.19
2022-08-26T03:50:53.706Z,21.54
2022-08-26T03:51:53.684Z,22.51
2022-08-26T03:52:53.675Z,21.54
2022-08-26T03:53:53.666Z,19.93
2022-08-26T03:54:53.644Z,21.54
2022-08-26T03:55:53.640Z,21.22
2022-08-26T03:56:53.613Z,22.51
2022-08-26T03:57:53.606Z,19.61
2022-08-26T03:58:53.585Z,22.19
2022-08-26T03:59:53.587Z,24.77
2022-08-26T04:00:55.369Z,19.61
2022-08-26T04:01:53.607Z,21.87
2022-08-26T04:02:53.673Z,21.22
2022-08-26T04:03:53.527Z,22.51
2022-08-26T04:04:53.506Z,22.83
2022-08-26T04:05:53.505Z,24.12
2022-08-26T04:06:53.483Z,20.25
2022-08-26T04:07:53.473Z,21.22
2022-08-26T04:08:53.456Z,21.22
2022-08-26T04:09:53.444Z,20.58
2022-08-26T04:10:53.426Z,22.51
2022-08-26T04:11:53.414Z,23.15
2022-08-26T04:12:53.398Z,22.19
2022-08-26T04:13:53.394Z,21.87
2022-08-26T04:14:53.371Z,24.12
2022-08-26T04:15:53.380Z,21.87
2022-08-26T04:16:53.348Z,24.12
2022-08-26T04:17:53.336Z,23.15
2022-08-26T04:18:53.318Z,18.96
2022-08-26T04:19:53.308Z,23.15
2022-08-26T04:20:53.289Z,20.25
2022-08-26T04:21:53.393Z,20.25
2022-08-26T04:22:53.264Z,22.51
2022-08-26T04:23:53.254Z,21.54
2022-08-26T04:24:53.245Z,25.41
2022-08-26T04:25:53.231Z,25.73
2022-08-26T04:26:53.213Z,21.87
2022-08-26T04:27:53.205Z,22.19
2022-08-26T04:28:53.190Z,21.87
2022-08-26T04:29:55.224Z,20.25
2022-08-26T04:30:53.194Z,22.83
2022-08-26T04:31:55.425Z,22.83
2022-08-26T04:32:53.136Z,21.22
2022-08-26T04:33:53.123Z,21.22
2022-08-26T04:34:53.103Z,21.22
2022-08-26T04:35:53.089Z,20.25
2022-08-26T04:36:53.075Z,21.87
2022-08-26T04:37:53.069Z,20.90
2022-08-26T04:38:53.044Z,21.87
2022-08-26T04:39:53.105Z,20.25
2022-08-26T04:40:53.027Z,20.90
2022-08-26T04:41:53.008Z,23.80
2022-08-26T04:42:52.993Z,21.22
2022-08-26T04:43:52.982Z,20.58
2022-08-26T04:44:52.974Z,23.48
2022-08-26T04:45:52.955Z,21.54
2022-08-26T04:46:52.970Z,18.96
2022-08-26T04:47:52.933Z,21.87
2022-08-26T04:48:52.916Z,19.93
2022-08-26T04:49:52.900Z,22.19
2022-08-26T04:50:52.882Z,19.93
2022-08-26T04:51:52.877Z,20.25
2022-08-26T04:52:52.860Z,22.83
2022-08-26T04:53:52.849Z,21.87
2022-08-26T04:54:52.826Z,22.83
2022-08-26T04:55:55.202Z,21.54
2022-08-26T04:56:52.805Z,19.93
2022-08-26T04:57:52.793Z,18.32
2022-08-26T04:58:52.779Z,19.93
2022-08-26T04:59:52.778Z,20.90
2022-08-26T05:00:52.753Z,22.51
2022-08-26T05:01:52.870Z,21.54
2022-08-26T05:02:52.729Z,19.93
2022-08-26T05:03:52.803Z,22.51
2022-08-26T05:04:52.692Z,22.51
2022-08-26T05:05:52.693Z,25.09
2022-08-26T05:06:54.844Z,21.22
2022-08-26T05:07:52.658Z,20.58
2022-08-26T05:08:52.645Z,21.87
2022-08-26T05:09:52.633Z,23.15
2022-08-26T05:10:52.614Z,22.19
2022-08-26T05:11:52.606Z,20.58
2022-08-26T05:12:52.586Z,19.61
2022-08-26T05:13:52.583Z,20.58
2022-08-26T05:14:52.556Z,20.58
2022-08-26T05:15:52.639Z,21.87
2022-08-26T05:16:52.531Z,18.00
2022-08-26T05:17:52.523Z,19.61
2022-08-26T05:18:52.502Z,19.61
2022-08-26T05:19:52.490Z,19.29
2022-08-26T05:20:53.793Z,18.00
2022-08-26T05:21:52.476Z,23.48
2022-08-26T05:22:52.454Z,18.96
2022-08-26T05:23:52.444Z,19.93
2022-08-26T05:24:52.425Z,19.61
2022-08-26T05:25:57.064Z,18.96
2022-08-26T05:26:53.418Z,18.32
2022-08-26T05:27:52.387Z,20.90
2022-08-26T05:28:54.837Z,19.93
2022-08-26T05:29:54.374Z,20.58
2022-08-26T05:30:52.428Z,20.58
2022-08-26T05:31:52.332Z,21.54
2022-08-26T05:32:55.241Z,18.96
2022-08-26T05:33:52.309Z,19.61
2022-08-26T05:34:52.286Z,19.93
2022-08-26T05:35:52.280Z,20.58
2022-08-26T05:36:52.267Z,20.25
2022-08-26T05:37:52.249Z,21.54
2022-08-26T05:38:52.242Z,21.54
2022-08-26T05:39:52.262Z,19.29
2022-08-26T05:40:52.527Z,19.61
2022-08-26T05:41:52.197Z,18.96
2022-08-26T05:42:52.179Z,18.64
2022-08-26T05:43:52.172Z,19.93
2022-08-26T05:44:54.000Z,18.96
2022-08-26T05:45:52.234Z,22.51
2022-08-26T05:46:52.175Z,21.22
2022-08-26T05:47:52.113Z,19.29
2022-08-26T05:48:52.099Z,20.25
2022-08-26T05:49:52.092Z,21.87
2022-08-26T05:50:52.073Z,20.58
2022-08-26T05:51:52.060Z,23.48
2022-08-26T05:52:52.042Z,19.93
2022-08-26T05:53:54.507Z,21.22
2022-08-26T05:54:52.018Z,21.87
2022-08-26T05:55:52.004Z,19.61
2022-08-26T05:56:52.013Z,19.29
2022-08-26T05:57:51.977Z,17.35
2022-08-26T05:58:51.967Z,24.12
2022-08-26T05:59:51.954Z,20.58
2022-08-26T06:00:51.939Z,21.54
2022-08-26T06:01:52.008Z,19.93
2022-08-26T06:02:51.951Z,20.90
2022-08-26T06:03:51.900Z,22.83
2022-08-26T06:04:51.896Z,19.93
2022-08-26T06:05:51.869Z,18.00
2022-08-26T06:06:51.857Z,19.29
2022-08-26T06:07:51.845Z,18.96
2022-08-26T06:08:51.835Z,21.54
2022-08-26T06:09:51.821Z,20.58
2022-08-26T06:10:51.980Z,22.19
2022-08-26T06:11:51.799Z,19.29
2022-08-26T06:12:51.774Z,18.32
2022-08-26T06:13:51.768Z,18.96
2022-08-26T06:14:51.748Z,20.25
2022-08-26T06:15:51.823Z,20.90
2022-08-26T06:16:51.721Z,19.29
2022-08-26T06:17:51.705Z,19.61
2022-08-26T06:18:51.718Z,18.32
2022-08-26T06:19:51.683Z,21.87
2022-08-26T06:20:57.987Z,19.61
2022-08-26T06:21:54.310Z,19.93
2022-08-26T06:22:51.639Z,20.58
2022-08-26T06:23:51.624Z,21.87
2022-08-26T06:24:51.608Z,22.51
2022-08-26T06:25:51.604Z,20.58
2022-08-26T06:26:51.582Z,21.22
2022-08-26T06:27:51.580Z,19.61
2022-08-26T06:28:51.557Z,18.96
2022-08-26T06:29:51.553Z,21.54
2022-08-26T06:30:51.650Z,23.80
2022-08-26T06:31:51.519Z,21.87
2022-08-26T06:32:51.501Z,19.29
2022-08-26T06:33:51.499Z,21.54
2022-08-26T06:34:51.485Z,19.93
2022-08-26T06:35:51.463Z,17.68
2022-08-26T06:36:53.137Z,20.90
2022-08-26T06:37:51.441Z,20.25
2022-08-26T06:38:51.432Z,20.90
2022-08-26T06:39:51.496Z,23.15
2022-08-26T06:40:51.402Z,21.87
2022-08-26T06:41:51.382Z,18.32
2022-08-26T06:42:51.377Z,21.22
2022-08-26T06:43:51.361Z,21.87
2022-08-26T06:44:51.350Z,18.96
2022-08-26T06:45:51.338Z,19.61
2022-08-26T06:46:51.450Z,19.29
2022-08-26T06:47:51.304Z,21.87
2022-08-26T06:48:51.301Z,18.32
2022-08-26T06:49:51.280Z,21.22
2022-08-26T06:50:51.270Z,19.29
2022-08-26T06:51:51.251Z,18.32
2022-08-26T06:52:51.245Z,20.58
2022-08-26T06:53:51.230Z,22.51
2022-08-26T06:54:51.213Z,21.87
2022-08-26T06:55:51.926Z,21.22
2022-08-26T06:56:51.191Z,20.90
2022-08-26T06:57:51.174Z,21.22
2022-08-26T06:58:51.166Z,20.58
2022-08-26T06:59:51.344Z,19.29
2022-08-26T07:00:51.145Z,18.64
2022-08-26T07:01:51.169Z,21.54
2022-08-26T07:02:51.185Z,22.51
2022-08-26T07:03:51.103Z,18.96
2022-08-26T07:04:51.360Z,22.19
2022-08-26T07:05:51.071Z,20.58
2022-08-26T07:06:52.607Z,18.64
2022-08-26T07:07:51.045Z,20.25
2022-08-26T07:08:51.039Z,21.22
2022-08-26T07:09:52.442Z,20.58
2022-08-26T07:10:51.011Z,20.58
2022-08-26T07:11:50.997Z,20.25
2022-08-26T07:12:50.986Z,18.32
2022-08-26T07:13:50.969Z,21.22
2022-08-26T07:14:50.964Z,20.58
2022-08-26T07:15:51.009Z,22.83
2022-08-26T07:16:51.954Z,21.54
2022-08-26T07:17:50.913Z,23.80
2022-08-26T07:18:50.905Z,23.80
2022-08-26T07:19:50.887Z,20.58
2022-08-26T07:20:50.880Z,18.96
2022-08-26T07:21:50.865Z,20.90
2022-08-26T07:22:50.852Z,18.64
2022-08-26T07:23:50.835Z,23.15
2022-08-26T07:24:50.833Z,19.93
2022-08-26T07:25:50.813Z,20.58
2022-08-26T07:26:50.803Z,22.19
2022-08-26T07:27:54.347Z,21.87
2022-08-26T07:28:50.782Z,20.25
2022-08-26T07:29:50.756Z,19.93
2022-08-26T07:30:50.864Z,22.51
2022-08-26T07:31:50.728Z,20.90
2022-08-26T07:32:50.734Z,21.54
2022-08-26T07:33:50.709Z,20.90
2022-08-26T07:34:50.700Z,24.12
2022-08-26T07:35:50.683Z,21.22
2022-08-26T07:36:50.678Z,19.93
2022-08-26T07:37:55.058Z,20.90
2022-08-26T07:38:51.670Z,19.29
2022-08-26T07:39:50.672Z,21.54
2022-08-26T07:40:50.622Z,22.51
2022-08-26T07:41:50.612Z,19.61
2022-08-26T07:42:50.597Z,22.51
2022-08-26T07:43:50.578Z,19.61
2022-08-26T07:44:50.575Z,24.12
2022-08-26T07:45:50.602Z,19.93
2022-08-26T07:46:53.277Z,20.90
2022-08-26T07:47:50.533Z,20.90
2022-08-26T07:48:50.526Z,18.96
2022-08-26T07:49:52.830Z,21.87
2022-08-26T07:50:50.854Z,21.54
2022-08-26T07:51:50.484Z,19.93
2022-08-26T07:52:50.473Z,22.51
2022-08-26T07:53:52.673Z,22.51
2022-08-26T07:54:50.447Z,21.87
2022-08-26T07:55:50.432Z,23.15
2022-08-26T07:56:50.421Z,20.58
2022-08-26T07:57:50.406Z,22.51
2022-08-26T07:58:51.784Z,18.96
2022-08-26T07:59:50.386Z,20.58
2022-08-26T08:00:50.375Z,22.51
2022-08-26T08:01:50.396Z,20.58
2022-08-26T08:02:50.347Z,19.29
2022-08-26T08:03:50.516Z,22.19
2022-08-26T08:04:50.366Z,21.87
2022-08-26T08:05:50.312Z,20.90
2022-08-26T08:06:50.301Z,19.93
2022-08-26T08:07:53.583Z,22.19
2022-08-26T08:08:51.658Z,20.25
2022-08-26T08:09:50.254Z,23.80
2022-08-26T08:10:50.249Z,20.25
2022-08-26T08:11:51.279Z,21.22
2022-08-26T08:12:50.221Z,21.22
2022-08-26T08:13:56.155Z,21.54
2022-08-26T08:14:51.222Z,21.54
2022-08-26T08:15:50.279Z,20.90
2022-08-26T08:16:54.431Z,22.19
2022-08-26T08:17:50.476Z,22.51
2022-08-26T08:18:50.177Z,22.83
2022-08-26T08:19:50.135Z,22.51
2022-08-26T08:20:59.231Z,23.48
2022-08-26T08:21:51.134Z,21.87
2022-08-26T08:22:50.107Z,22.19
2022-08-26T08:23:50.091Z,22.19
2022-08-26T08:24:53.000Z,23.80
2022-08-26T08:25:50.062Z,22.51
2022-08-26T08:26:50.058Z,24.12
2022-08-26T08:27:50.045Z,21.22
2022-08-26T08:28:50.034Z,21.87
2022-08-26T08:29:50.013Z,20.90
2022-08-26T08:30:50.085Z,26.05
2022-08-26T08:31:56.524Z,19.93
2022-08-26T08:32:51.002Z,20.90
2022-08-26T08:33:49.977Z,22.51
2022-08-26T08:34:49.961Z,24.44
2022-08-26T08:35:49.941Z,23.48
2022-08-26T08:36:49.941Z,21.87
2022-08-26T08:37:49.923Z,20.25
2022-08-26T08:38:49.915Z,21.87
2022-08-26T08:39:49.998Z,23.15
2022-08-26T08:40:49.893Z,21.54
2022-08-26T08:41:49.869Z,24.12
2022-08-26T08:42:49.879Z,23.15
2022-08-26T08:43:49.846Z,21.87
2022-08-26T08:44:52.037Z,21.22
2022-08-26T08:45:49.930Z,21.54
2022-08-26T08:46:49.819Z,24.12
2022-08-26T08:47:49.800Z,22.83
2022-08-26T08:48:49.797Z,22.19
2022-08-26T08:49:49.774Z,21.54
2022-08-26T08:50:49.772Z,22.19
2022-08-26T08:51:49.750Z,21.54
2022-08-26T08:52:49.748Z,22.83
2022-08-26T08:53:49.737Z,21.87
2022-08-26T08:54:49.720Z,22.83
2022-08-26T08:55:49.735Z,20.90
2022-08-26T08:56:49.696Z,21.22
2022-08-26T08:57:49.682Z,24.12
2022-08-26T08:58:49.677Z,22.19
2022-08-26T08:59:49.664Z,22.83
2022-08-26T09:00:49.661Z,23.80
2022-08-26T09:01:52.410Z,22.51
2022-08-26T09:02:49.678Z,21.54
2022-08-26T09:03:49.614Z,20.25
2022-08-26T09:04:49.609Z,23.80
2022-08-26T09:05:49.597Z,23.48
2022-08-26T09:06:49.653Z,22.51
2022-08-26T09:07:49.577Z,22.19
2022-08-26T09:08:50.468Z,22.51
2022-08-26T09:09:49.554Z,22.51
2022-08-26T09:10:49.536Z,24.12
2022-08-26T09:11:49.522Z,23.48
2022-08-26T09:12:49.521Z,27.02
2022-08-26T09:13:49.501Z,22.83
2022-08-26T09:14:49.492Z,25.09
2022-08-26T09:15:49.480Z,25.09
2022-08-26T09:16:49.535Z,21.22
2022-08-26T09:17:49.457Z,27.34
2022-08-26T09:18:49.451Z,23.80
2022-08-26T09:19:49.439Z,24.77
2022-08-26T09:20:49.427Z,24.44
2022-08-26T09:21:53.355Z,21.54
2022-08-26T09:22:49.403Z,22.19
2022-08-26T09:23:49.830Z,25.41
2022-08-26T09:24:49.390Z,23.80
2022-08-26T09:25:49.399Z,23.80
2022-08-26T09:26:49.364Z,23.48
2022-08-26T09:27:50.424Z,23.15
2022-08-26T09:28:49.344Z,26.70
2022-08-26T09:29:50.490Z,22.83
2022-08-26T09:30:49.375Z,23.15
2022-08-26T09:31:49.300Z,22.19
2022-08-26T09:33:14.340Z,24.12
2022-08-26T09:33:50.309Z,22.19
2022-08-26T09:34:49.275Z,23.48
2022-08-26T09:35:49.269Z,27.02
2022-08-26T09:36:49.258Z,24.44
2022-08-26T09:38:49.239Z,23.48
2022-08-26T09:39:49.275Z,23.80
2022-08-26T09:40:49.215Z,26.38
2022-08-26T09:41:50.225Z,24.44
2022-08-26T09:42:49.186Z,22.51
2022-08-26T09:43:49.172Z,26.05
2022-08-26T09:44:49.171Z,22.83
2022-08-26T09:45:50.823Z,23.15
2022-08-26T09:46:49.141Z,24.12
2022-08-26T09:47:49.136Z,22.51
2022-08-26T09:48:53.081Z,24.44
2022-08-26T09:49:49.111Z,24.12
2022-08-26T09:50:49.109Z,25.09
2022-08-26T09:51:50.125Z,21.54
2022-08-26T09:52:49.084Z,24.77
2022-08-26T09:53:49.063Z,23.15
2022-08-26T09:54:49.055Z,22.51
2022-08-26T09:55:49.078Z,23.15
2022-08-26T09:56:49.041Z,23.80
2022-08-26T09:57:49.027Z,22.19
2022-08-26T09:58:49.018Z,25.09
2022-08-26T09:59:49.011Z,22.51
2022-08-26T10:00:49.041Z,23.48
2022-08-26T10:01:49.166Z,21.87
2022-08-26T10:02:49.535Z,24.44
2022-08-26T10:03:49.090Z,23.80
2022-08-26T10:04:48.955Z,22.83
2022-08-26T10:05:48.942Z,24.12
2022-08-26T10:06:48.940Z,23.80
2022-08-26T10:07:48.923Z,25.73
2022-08-26T10:08:48.915Z,26.38
2022-08-26T10:09:48.899Z,23.48
2022-08-26T10:10:48.925Z,23.15
2022-08-26T10:11:49.034Z,23.80
2022-08-26T10:12:48.876Z,23.15
2022-08-26T10:13:48.856Z,25.09
2022-08-26T10:14:48.947Z,23.15
2022-08-26T10:15:50.771Z,24.44
2022-08-26T10:16:48.901Z,23.80
2022-08-26T10:17:48.823Z,23.15
2022-08-26T10:18:48.819Z,24.77
2022-08-26T10:19:57.102Z,23.48
2022-08-26T10:20:49.809Z,25.09
2022-08-26T10:21:48.783Z,24.77
2022-08-26T10:22:48.767Z,25.73
2022-08-26T10:23:48.761Z,23.48
2022-08-26T10:24:50.836Z,24.12
2022-08-26T10:25:48.741Z,23.80
2022-08-26T10:26:48.735Z,28.96
2022-08-26T10:27:53.380Z,24.12
2022-08-26T10:28:48.710Z,24.12
2022-08-26T10:29:48.700Z,26.70
2022-08-26T10:30:48.692Z,25.09
2022-08-26T10:31:48.743Z,24.44
2022-08-26T10:32:48.667Z,25.73
2022-08-26T10:33:48.656Z,23.80
2022-08-26T10:34:48.646Z,23.80
2022-08-26T10:35:48.630Z,25.41
2022-08-26T10:37:13.587Z,25.41
2022-08-26T10:37:49.637Z,24.44
2022-08-26T10:38:48.612Z,24.44
2022-08-26T10:39:49.136Z,25.73
2022-08-26T10:40:49.131Z,24.77
2022-08-26T10:41:48.579Z,24.77
2022-08-26T10:42:48.571Z,23.48
2022-08-26T10:43:48.554Z,24.77
2022-08-26T10:44:48.549Z,27.02
2022-08-26T10:45:48.589Z,24.77
2022-08-26T10:46:48.531Z,22.83
2022-08-26T10:47:48.521Z,24.44
2022-08-26T10:48:48.507Z,24.44
2022-08-26T10:49:48.495Z,25.09
2022-08-26T10:50:48.496Z,25.41
2022-08-26T10:51:48.479Z,26.05
2022-08-26T10:52:48.471Z,24.12
2022-08-26T10:53:48.471Z,24.77
2022-08-26T10:54:48.456Z,26.70
2022-08-26T10:55:48.440Z,23.48
2022-08-26T10:56:48.431Z,24.12
2022-08-26T10:57:48.430Z,24.44
2022-08-26T10:58:48.413Z,24.44
2022-08-26T10:59:48.411Z,23.80
2022-08-26T11:00:48.431Z,23.15
2022-08-26T11:01:51.103Z,23.80
2022-08-26T11:02:48.384Z,26.70
2022-08-26T11:03:48.414Z,24.44
2022-08-26T11:04:48.754Z,24.44
2022-08-26T11:05:48.335Z,26.38
2022-08-26T11:06:48.329Z,23.48
2022-08-26T11:07:48.312Z,26.05
2022-08-26T11:08:48.304Z,23.15
2022-08-26T11:09:48.300Z,22.83
2022-08-26T11:10:48.276Z,24.44
2022-08-26T11:11:48.270Z,25.73
2022-08-26T11:12:49.200Z,25.73
2022-08-26T11:13:48.252Z,25.73
2022-08-26T11:14:58.457Z,24.44
2022-08-26T11:15:49.246Z,25.41
2022-08-26T11:16:48.237Z,26.38
2022-08-26T11:17:48.212Z,23.48
2022-08-26T11:18:48.195Z,24.44
2022-08-26T11:20:00.192Z,25.09
2022-08-26T11:20:49.203Z,27.34
2022-08-26T11:21:50.762Z,25.09
2022-08-26T11:22:48.305Z,23.80
2022-08-26T11:23:50.592Z,25.09
2022-08-26T11:24:48.128Z,26.38
2022-08-26T11:25:48.136Z,24.44
2022-08-26T11:26:56.143Z,27.02
2022-08-26T11:27:49.129Z,25.73
2022-08-26T11:28:48.090Z,24.77
2022-08-26T11:29:48.078Z,25.09
2022-08-26T11:30:48.068Z,27.34
2022-08-26T11:31:49.134Z,26.38
2022-08-26T11:32:48.744Z,24.77
2022-08-26T11:33:48.041Z,23.48
2022-08-26T11:34:48.028Z,25.41
2022-08-26T11:35:48.025Z,24.77
2022-08-26T11:36:48.012Z,26.38
2022-08-26T11:37:47.997Z,27.34
2022-08-26T11:38:47.987Z,25.73
2022-08-26T11:39:52.554Z,27.67
2022-08-26T11:40:49.010Z,27.67
2022-08-26T11:41:47.960Z,26.05
2022-08-26T11:42:47.946Z,24.12
2022-08-26T11:43:47.938Z,28.31
2022-08-26T11:44:49.313Z,25.09
2022-08-26T11:45:47.955Z,26.05
2022-08-26T11:46:47.902Z,24.12
2022-08-26T11:47:49.461Z,26.05
2022-08-26T11:48:47.881Z,25.09
2022-08-26T11:49:47.877Z,25.41
2022-08-26T11:50:47.863Z,25.09
2022-08-26T11:51:48.340Z,26.05
2022-08-26T11:52:47.840Z,25.41
2022-08-26T11:53:47.837Z,26.05
2022-08-26T11:54:47.818Z,24.44
2022-08-26T11:55:47.812Z,25.09
2022-08-26T11:56:47.802Z,27.34
2022-08-26T11:57:47.800Z,25.73
2022-08-26T11:58:47.774Z,26.05
2022-08-26T11:59:47.776Z,24.77
2022-08-26T12:00:47.758Z,26.70
2022-08-26T12:01:47.747Z,27.99
2022-08-26T12:02:47.733Z,26.05
2022-08-26T12:03:47.802Z,26.70
2022-08-26T12:04:47.771Z,25.09
2022-08-26T12:05:47.710Z,25.09
2022-08-26T12:06:47.700Z,26.05
2022-08-26T12:07:47.694Z,24.44
2022-08-26T12:08:47.675Z,24.77
2022-08-26T12:09:47.666Z,26.05
2022-08-26T12:10:47.652Z,26.05
2022-08-26T12:11:47.649Z,26.05
2022-08-26T12:12:47.636Z,26.38
2022-08-26T12:13:47.631Z,26.05
2022-08-26T12:14:47.611Z,28.31
2022-08-26T12:15:47.605Z,26.05
2022-08-26T12:16:47.656Z,25.73
2022-08-26T12:17:51.694Z,26.38
2022-08-26T12:18:47.572Z,26.70
2022-08-26T12:19:47.567Z,27.99
2022-08-26T12:20:47.545Z,27.99
2022-08-26T12:21:47.546Z,26.38
2022-08-26T12:22:48.099Z,26.70
2022-08-26T12:23:47.514Z,26.38
2022-08-26T12:24:47.503Z,25.41
2022-08-26T12:25:47.493Z,26.70
2022-08-26T12:26:47.482Z,25.73
2022-08-26T12:27:50.616Z,26.05
2022-08-26T12:28:48.487Z,25.73
2022-08-26T12:29:48.526Z,25.41
2022-08-26T12:30:47.441Z,26.38
2022-08-26T12:31:47.463Z,27.02
2022-08-26T12:32:58.202Z,25.41
2022-08-26T12:33:48.431Z,27.67
2022-08-26T12:34:47.396Z,28.31
2022-08-26T12:35:48.546Z,25.41
2022-08-26T12:36:47.402Z,27.99
2022-08-26T12:37:47.360Z,26.05
2022-08-26T12:38:47.350Z,24.77
2022-08-26T12:39:47.349Z,26.70
2022-08-26T12:40:47.331Z,28.63
2022-08-26T12:41:47.322Z,25.73
2022-08-26T12:42:47.303Z,25.73
2022-08-26T12:43:47.307Z,25.73
2022-08-26T12:44:53.934Z,26.05
2022-08-26T12:45:48.326Z,25.41
2022-08-26T12:46:49.879Z,25.41
2022-08-26T12:47:47.259Z,26.38
2022-08-26T12:48:47.235Z,26.05
2022-08-26T12:49:47.230Z,27.34
2022-08-26T12:50:47.216Z,26.38
2022-08-26T12:51:47.212Z,27.34
2022-08-26T12:52:47.202Z,27.34
2022-08-26T12:53:47.192Z,26.05